createdAt,value
2023-08-20T00:01:29.327Z,10.25
2023-08-20T00:04:33.536Z,11.40
2023-08-20T00:07:36.890Z,10.98
2023-08-20T00:10:39.717Z,11.07
2023-08-20T00:13:42.413Z,11.00
2023-08-20T00:16:45.726Z,12.35
2023-08-20T00:19:49.228Z,10.82
2023-08-20T00:22:52.488Z,11.30
2023-08-20T00:25:55.406Z,11.50
2023-08-20T00:28:57.959Z,12.30
2023-08-20T00:32:00.497Z,11.63
2023-08-20T00:35:08.560Z,10.85
2023-08-20T00:38:12.430Z,11.48
2023-08-20T00:41:15.026Z,11.45
2023-08-20T00:44:17.515Z,11.63
2023-08-20T00:47:20.860Z,12.18
2023-08-20T00:50:23.519Z,12.73
2023-08-20T00:53:28.429Z,11.82
2023-08-20T00:56:31.928Z,11.77
2023-08-20T00:59:35.253Z,12.83
2023-08-20T01:02:39.232Z,12.10
2023-08-20T01:05:51.777Z,12.35
2023-08-20T01:08:59.864Z,11.85
2023-08-20T01:12:04.479Z,11.63
2023-08-20T01:15:09.672Z,11.80
2023-08-20T01:18:12.746Z,11.60
2023-08-20T01:21:36.749Z,10.45
2023-08-20T01:25:05.315Z,10.55
2023-08-20T01:28:22.856Z,10.90
2023-08-20T01:31:27.802Z,10.57
2023-08-20T01:34:30.441Z,10.38
2023-08-20T01:37:33.290Z,10.25
2023-08-20T01:40:36.282Z,10.23
2023-08-20T01:43:38.887Z,10.88
2023-08-20T01:46:41.601Z,11.10
2023-08-20T01:49:44.326Z,10.40
2023-08-20T01:52:46.921Z,10.75
2023-08-20T01:55:49.424Z,11.18
2023-08-20T01:58:52.024Z,10.85
2023-08-20T02:01:54.670Z,11.63
2023-08-20T02:04:57.479Z,10.25
2023-08-20T02:07:59.998Z,11.57
2023-08-20T02:11:06.074Z,11.35
2023-08-20T02:14:08.647Z,11.95
2023-08-20T02:17:13.456Z,12.00
2023-08-20T02:20:16.054Z,13.00
2023-08-20T02:23:18.532Z,11.98
2023-08-20T02:26:21.029Z,11.90
2023-08-20T02:29:23.600Z,12.27
2023-08-20T02:32:26.182Z,11.53
2023-08-20T02:35:28.688Z,12.38
2023-08-20T02:38:31.541Z,12.95
2023-08-20T02:41:34.997Z,12.20
2023-08-20T02:44:38.649Z,13.60
2023-08-20T02:47:41.203Z,12.33
2023-08-20T02:50:43.737Z,12.32
2023-08-20T02:53:46.257Z,12.40
2023-08-20T02:56:49.468Z,12.18
2023-08-20T02:59:52.061Z,13.10
2023-08-20T03:02:54.713Z,12.60
2023-08-20T03:05:57.284Z,14.13
2023-08-20T03:09:00.134Z,12.75
2023-08-20T03:12:02.785Z,12.13
2023-08-20T03:15:06.646Z,12.43
2023-08-20T03:18:09.341Z,12.77
2023-08-20T03:21:12.250Z,13.65
2023-08-20T03:24:14.699Z,12.43
2023-08-20T03:27:17.866Z,12.30
2023-08-20T03:30:20.592Z,12.10
2023-08-20T03:33:23.136Z,12.10
2023-08-20T03:36:25.688Z,10.63
2023-08-20T03:39:28.252Z,10.85
2023-08-20T03:42:30.765Z,11.30
2023-08-20T03:45:33.397Z,10.93
2023-08-20T03:48:35.965Z,10.40
2023-08-20T03:51:38.542Z,10.20
2023-08-20T03:54:41.076Z,10.43
2023-08-20T03:57:43.781Z,11.27
2023-08-20T04:00:46.344Z,10.83
2023-08-20T04:03:49.417Z,10.05
2023-08-20T04:06:52.301Z,10.60
2023-08-20T04:09:54.808Z,10.48
2023-08-20T04:12:57.260Z,10.53
2023-08-20T04:16:00.076Z,10.17
2023-08-20T04:19:02.854Z,10.55
2023-08-20T04:22:05.526Z,10.40
2023-08-20T04:25:08.884Z,10.98
2023-08-20T04:28:12.856Z,11.23
2023-08-20T04:31:15.503Z,11.53
2023-08-20T04:34:25.278Z,11.57
2023-08-20T04:37:29.509Z,11.77
2023-08-20T04:40:33.763Z,12.18
2023-08-20T04:43:36.305Z,12.03
2023-08-20T04:46:39.073Z,11.47
2023-08-20T04:49:41.639Z,11.85
2023-08-20T04:52:44.267Z,12.00
2023-08-20T04:55:47.172Z,11.65
2023-08-20T04:58:50.007Z,11.40
2023-08-20T05:02:12.519Z,10.43
2023-08-20T05:05:20.890Z,10.43
2023-08-20T05:08:25.541Z,9.70
2023-08-20T05:11:29.553Z,9.70
2023-08-20T05:14:32.535Z,9.60
2023-08-20T05:17:35.177Z,9.50
2023-08-20T05:20:38.709Z,9.68
2023-08-20T05:23:41.835Z,9.63
2023-08-20T05:26:44.447Z,9.82
2023-08-20T05:29:47.818Z,9.13
2023-08-20T05:32:51.308Z,8.80
2023-08-20T05:35:54.324Z,9.07
2023-08-20T05:38:58.247Z,7.88
2023-08-20T05:42:01.214Z,8.57
2023-08-20T05:45:04.009Z,9.03
2023-08-20T05:48:06.921Z,8.57
2023-08-20T05:51:09.548Z,8.63
2023-08-20T05:54:14.360Z,8.38
2023-08-20T05:57:16.914Z,8.73
2023-08-20T06:00:20.543Z,8.87
2023-08-20T06:03:23.743Z,8.87
2023-08-20T06:06:27.365Z,9.02
2023-08-20T06:09:30.442Z,8.40
2023-08-20T06:12:33.304Z,7.47
2023-08-20T06:15:36.190Z,8.00
2023-08-20T06:18:39.019Z,8.20
2023-08-20T06:21:41.603Z,8.75
2023-08-20T06:24:44.176Z,8.20
2023-08-20T06:27:46.908Z,8.32
2023-08-20T06:30:49.532Z,8.33
2023-08-20T06:33:52.026Z,9.07
2023-08-20T06:36:54.568Z,9.70
2023-08-20T06:39:57.029Z,9.25
2023-08-20T06:42:59.614Z,7.95
2023-08-20T06:46:02.232Z,8.67
2023-08-20T06:49:04.821Z,8.50
2023-08-20T06:52:07.430Z,8.63
2023-08-20T06:55:10.053Z,7.55
2023-08-20T06:58:12.598Z,8.38
2023-08-20T07:01:15.213Z,9.30
2023-08-20T07:04:17.718Z,8.80
2023-08-20T07:07:20.204Z,8.88
2023-08-20T07:10:22.715Z,8.55
2023-08-20T07:13:25.260Z,8.15
2023-08-20T07:16:28.092Z,8.57
2023-08-20T07:19:30.610Z,8.33
2023-08-20T07:22:35.398Z,8.32
2023-08-20T07:25:42.263Z,8.60
2023-08-20T07:29:00.082Z,7.82
2023-08-20T07:32:04.488Z,8.60
2023-08-20T07:35:11.284Z,7.80
2023-08-20T07:38:14.338Z,8.40
2023-08-20T07:41:17.013Z,8.00
2023-08-20T07:44:19.487Z,8.30
2023-08-20T07:47:22.091Z,8.57
2023-08-20T07:50:24.816Z,8.63
2023-08-20T07:53:27.796Z,8.43
2023-08-20T07:56:30.261Z,8.13
2023-08-20T07:59:32.839Z,7.68
2023-08-20T08:02:35.421Z,8.02
2023-08-20T08:05:38.316Z,7.43
2023-08-20T08:08:44.075Z,8.48
2023-08-20T08:11:46.600Z,8.32
2023-08-20T08:14:49.099Z,7.72
2023-08-20T08:17:51.626Z,7.97
2023-08-20T08:20:55.390Z,8.20
2023-08-20T08:23:57.913Z,7.82
2023-08-20T08:27:00.423Z,7.82
2023-08-20T08:30:03.091Z,8.25
2023-08-20T08:33:05.925Z,7.72
2023-08-20T08:36:08.399Z,8.00
2023-08-20T08:39:10.856Z,7.82
2023-08-20T08:42:15.319Z,8.40
2023-08-20T08:45:21.076Z,8.07
2023-08-20T08:48:23.847Z,8.48
2023-08-20T08:51:27.793Z,7.80
2023-08-20T08:54:30.947Z,8.68
2023-08-20T08:57:33.846Z,8.20
2023-08-20T09:00:36.678Z,8.93
2023-08-20T09:03:39.452Z,8.40
2023-08-20T09:06:49.716Z,8.40
2023-08-20T09:09:52.197Z,8.45
2023-08-20T09:12:57.851Z,8.20
2023-08-20T09:16:01.031Z,8.40
2023-08-20T09:19:04.337Z,8.30
2023-08-20T09:22:06.893Z,8.30
2023-08-20T09:25:18.034Z,8.88
2023-08-20T09:28:20.596Z,7.82
2023-08-20T09:31:39.976Z,8.57
2023-08-20T09:34:43.015Z,7.70
2023-08-20T09:37:45.522Z,7.50
2023-08-20T09:40:50.956Z,7.15
2023-08-20T09:43:58.019Z,7.18
2023-08-20T09:47:01.371Z,7.50
2023-08-20T09:50:06.978Z,8.32
2023-08-20T09:53:22.685Z,7.27
2023-08-20T09:56:39.467Z,6.82
2023-08-20T09:59:43.688Z,7.80
2023-08-20T10:02:46.198Z,7.32
2023-08-20T10:05:51.228Z,7.88
2023-08-20T10:08:54.997Z,7.33
2023-08-20T10:11:57.695Z,7.80
2023-08-20T10:15:01.601Z,7.35
2023-08-20T10:18:04.518Z,8.00
2023-08-20T10:21:10.466Z,7.50
2023-08-20T10:24:19.548Z,6.90
2023-08-20T10:27:29.791Z,6.57
2023-08-20T10:30:32.234Z,6.68
2023-08-20T10:33:36.672Z,7.00
2023-08-20T10:36:43.484Z,6.85
2023-08-20T10:39:55.004Z,6.53
2023-08-20T10:43:02.849Z,7.03
2023-08-20T10:46:10.677Z,6.85
2023-08-20T10:49:18.678Z,7.00
2023-08-20T10:52:25.097Z,7.30
2023-08-20T10:55:28.221Z,6.57
2023-08-20T10:58:32.178Z,6.82
2023-08-20T11:01:35.820Z,7.07
2023-08-20T11:04:39.771Z,7.30
2023-08-20T11:07:42.396Z,7.28
2023-08-20T11:10:46.163Z,7.33
2023-08-20T11:13:48.674Z,7.45
2023-08-20T11:16:52.323Z,7.75
2023-08-20T11:20:07.622Z,7.20
2023-08-20T11:23:13.326Z,6.53
2023-08-20T11:26:16.230Z,7.57
2023-08-20T11:29:21.485Z,7.78
2023-08-20T11:32:27.240Z,7.85
2023-08-20T11:35:30.180Z,7.82
2023-08-20T11:38:33.019Z,7.78
2023-08-20T11:41:41.032Z,7.83
2023-08-20T11:44:45.813Z,7.82
2023-08-20T11:47:48.391Z,8.07
2023-08-20T11:50:51.954Z,7.53
2023-08-20T11:53:54.592Z,8.02
2023-08-20T11:57:04.576Z,7.53
2023-08-20T12:00:14.557Z,8.10
2023-08-20T12:03:19.285Z,8.07
2023-08-20T12:06:26.296Z,8.05
2023-08-20T12:09:28.936Z,7.93
2023-08-20T12:12:31.404Z,7.43
2023-08-20T12:15:33.848Z,8.30
2023-08-20T12:18:36.705Z,7.85
2023-08-20T12:21:39.333Z,7.75
2023-08-20T12:24:42.260Z,8.52
2023-08-20T12:27:44.774Z,8.40
2023-08-20T12:30:47.482Z,8.40
2023-08-20T12:33:50.092Z,7.88
2023-08-20T12:36:52.629Z,8.77
2023-08-20T12:39:55.812Z,8.60
2023-08-20T12:42:58.366Z,8.67
2023-08-20T12:46:00.945Z,8.88
2023-08-20T12:49:03.683Z,8.55
2023-08-20T12:52:06.433Z,8.30
2023-08-20T12:55:09.400Z,8.18
2023-08-20T12:58:11.889Z,7.73
2023-08-20T13:01:14.438Z,8.13
2023-08-20T13:04:17.340Z,7.60
2023-08-20T13:07:20.247Z,8.25
2023-08-20T13:10:23.430Z,7.82
2023-08-20T13:13:27.923Z,7.70
2023-08-20T13:16:30.747Z,7.82
2023-08-20T13:19:33.725Z,8.40
2023-08-20T13:22:37.082Z,7.28
2023-08-20T13:25:39.626Z,7.70
2023-08-20T13:28:42.128Z,8.07
2023-08-20T13:31:45.026Z,7.72
2023-08-20T13:34:47.506Z,7.90
2023-08-20T13:37:50.033Z,7.97
2023-08-20T13:40:52.620Z,7.90
2023-08-20T13:43:55.150Z,7.50
2023-08-20T13:46:57.648Z,7.55
2023-08-20T13:50:00.441Z,8.60
2023-08-20T13:53:03.875Z,7.60
2023-08-20T13:56:06.370Z,7.60
2023-08-20T13:59:10.833Z,7.47
2023-08-20T14:02:13.528Z,7.70
2023-08-20T14:05:16.052Z,7.63
2023-08-20T14:08:18.555Z,7.78
2023-08-20T14:11:21.608Z,7.10
2023-08-20T14:14:24.274Z,7.37
2023-08-20T14:17:27.482Z,7.78
2023-08-20T14:20:30.126Z,7.88
2023-08-20T14:23:32.663Z,7.65
2023-08-20T14:26:35.152Z,7.80
2023-08-20T14:29:37.758Z,8.23
2023-08-20T14:32:41.277Z,8.02
2023-08-20T14:35:44.254Z,8.35
2023-08-20T14:38:46.742Z,7.75
2023-08-20T14:41:49.234Z,8.43
2023-08-20T14:44:51.763Z,8.20
2023-08-20T14:47:54.414Z,8.63
2023-08-20T14:50:57.473Z,7.70
2023-08-20T14:54:00.041Z,8.98
2023-08-20T14:57:02.623Z,8.48
2023-08-20T15:00:09.059Z,7.77
2023-08-20T15:03:11.599Z,8.80
2023-08-20T15:06:15.650Z,8.63
2023-08-20T15:09:18.157Z,8.40
2023-08-20T15:12:20.720Z,8.18
2023-08-20T15:15:25.580Z,9.10
2023-08-20T15:18:28.009Z,9.18
2023-08-20T15:21:30.802Z,8.85
2023-08-20T15:24:33.440Z,8.90
2023-08-20T15:27:36.391Z,9.20
2023-08-20T15:30:39.218Z,9.00
2023-08-20T15:33:41.677Z,9.38
2023-08-20T15:36:44.359Z,8.68
2023-08-20T15:39:47.050Z,9.02
2023-08-20T15:42:49.585Z,9.15
2023-08-20T15:45:52.119Z,8.97
2023-08-20T15:48:54.642Z,9.80
2023-08-20T15:51:57.180Z,9.45
2023-08-20T15:55:00.263Z,8.85
2023-08-20T15:58:02.834Z,10.30
2023-08-20T16:01:05.488Z,9.47
2023-08-20T16:04:08.865Z,9.65
2023-08-20T16:07:11.337Z,9.02
2023-08-20T16:10:13.893Z,9.20
2023-08-20T16:13:16.353Z,9.45
2023-08-20T16:16:19.874Z,9.60
2023-08-20T16:19:22.739Z,9.60
2023-08-20T16:22:25.288Z,8.98
2023-08-20T16:25:27.796Z,9.32
2023-08-20T16:28:30.870Z,9.30
2023-08-20T16:31:33.537Z,9.27
2023-08-20T16:34:36.228Z,8.60
2023-08-20T16:37:39.061Z,9.65
2023-08-20T16:40:41.915Z,9.68
2023-08-20T16:43:44.375Z,9.60
2023-08-20T16:46:47.970Z,8.97
2023-08-20T16:49:50.436Z,9.07
2023-08-20T16:52:53.201Z,8.85
2023-08-20T16:55:56.306Z,8.52
2023-08-20T16:58:58.816Z,8.63
2023-08-20T17:02:01.894Z,8.60
2023-08-20T17:05:05.130Z,8.18
2023-08-20T17:08:07.696Z,8.48
2023-08-20T17:11:11.431Z,8.73
2023-08-20T17:14:14.524Z,8.57
2023-08-20T17:17:18.731Z,9.07
2023-08-20T17:20:21.404Z,8.90
2023-08-20T17:23:24.196Z,9.30
2023-08-20T17:26:26.791Z,8.10
2023-08-20T17:29:29.403Z,8.05
2023-08-20T17:32:31.896Z,8.20
2023-08-20T17:35:34.431Z,8.40
2023-08-20T17:38:37.075Z,8.25
2023-08-20T17:41:39.619Z,8.70
2023-08-20T17:44:42.072Z,8.48
2023-08-20T17:47:44.797Z,8.23
2023-08-20T17:50:48.153Z,8.35
2023-08-20T17:53:50.700Z,7.70
2023-08-20T17:56:53.217Z,7.68
2023-08-20T17:59:55.796Z,8.52
2023-08-20T18:02:58.724Z,8.07
2023-08-20T18:06:02.712Z,8.90
2023-08-20T18:09:05.234Z,8.43
2023-08-20T18:12:07.853Z,9.05
2023-08-20T18:15:10.654Z,9.43
2023-08-20T18:18:13.316Z,9.10
2023-08-20T18:21:15.839Z,9.35
2023-08-20T18:24:18.888Z,9.48
2023-08-20T18:27:21.541Z,11.30
2023-08-20T18:30:24.126Z,11.73
2023-08-20T18:33:28.349Z,12.13
2023-08-20T18:36:32.731Z,15.07
2023-08-20T18:39:35.274Z,13.75
2023-08-20T18:42:39.314Z,13.00
2023-08-20T18:45:42.007Z,20.53
2023-08-20T18:48:44.478Z,18.80
2023-08-20T18:51:47.188Z,18.25
2023-08-20T18:54:49.808Z,18.50
2023-08-20T18:57:52.655Z,16.88
2023-08-20T19:00:55.325Z,20.67
2023-08-20T19:03:58.635Z,22.70
2023-08-20T19:07:02.178Z,19.45
2023-08-20T19:10:06.225Z,15.43
2023-08-20T19:13:09.206Z,15.25
2023-08-20T19:16:11.828Z,15.37
2023-08-20T19:19:17.427Z,15.13
2023-08-20T19:22:19.932Z,14.95
2023-08-20T19:25:22.929Z,13.27
2023-08-20T19:28:25.539Z,12.98
2023-08-20T19:31:29.040Z,13.50
2023-08-20T19:34:32.379Z,13.23
2023-08-20T19:37:34.862Z,13.88
2023-08-20T19:40:38.839Z,13.73
2023-08-20T19:43:41.884Z,14.02
2023-08-20T19:46:44.468Z,13.90
2023-08-20T19:49:48.384Z,13.53
2023-08-20T19:52:51.300Z,14.23
2023-08-20T19:55:58.959Z,14.63
2023-08-20T19:59:01.518Z,16.33
2023-08-20T20:02:04.487Z,14.37
2023-08-20T20:05:09.201Z,16.50
2023-08-20T20:08:11.740Z,14.15
2023-08-20T20:11:14.328Z,13.20
2023-08-20T20:14:16.972Z,13.20
2023-08-20T20:17:19.603Z,13.47
2023-08-20T20:20:22.870Z,13.60
2023-08-20T20:23:25.422Z,13.05
2023-08-20T20:26:28.255Z,13.77
2023-08-20T20:29:32.646Z,13.15
2023-08-20T20:32:37.081Z,13.70
2023-08-20T20:35:39.941Z,12.50
2023-08-20T20:38:42.552Z,12.93
2023-08-20T20:41:45.020Z,13.02
2023-08-20T20:44:48.253Z,12.80
2023-08-20T20:47:50.733Z,12.47
2023-08-20T20:50:53.658Z,12.83
2023-08-20T20:53:56.271Z,12.80
2023-08-20T20:56:58.793Z,12.60
2023-08-20T21:00:01.264Z,12.77
2023-08-20T21:03:06.050Z,13.20
2023-08-20T21:06:08.642Z,12.90
2023-08-20T21:09:11.272Z,12.85
2023-08-20T21:12:13.744Z,12.43
2023-08-20T21:15:16.156Z,12.15
2023-08-20T21:18:18.651Z,12.47
2023-08-20T21:21:21.189Z,13.37
2023-08-20T21:24:23.699Z,13.57
2023-08-20T21:27:26.250Z,12.82
2023-08-20T21:30:28.768Z,13.38
2023-08-20T21:33:31.382Z,15.50
2023-08-20T21:36:33.895Z,13.17
2023-08-20T21:39:36.414Z,12.82
2023-08-20T21:42:39.308Z,13.13
2023-08-20T21:45:42.070Z,12.07
2023-08-20T21:48:44.645Z,12.50
2023-08-20T21:51:47.149Z,12.03
2023-08-20T21:54:49.879Z,11.35
2023-08-20T21:57:52.407Z,12.70
2023-08-20T22:00:54.955Z,12.20
2023-08-20T22:03:57.474Z,11.70
2023-08-20T22:07:00.550Z,12.27
2023-08-20T22:10:03.120Z,11.93
2023-08-20T22:13:05.680Z,12.07
2023-08-20T22:16:08.299Z,12.30
2023-08-20T22:19:11.314Z,12.53
2023-08-20T22:22:13.795Z,12.37
2023-08-20T22:25:16.288Z,12.18
2023-08-20T22:28:18.819Z,12.32
2023-08-20T22:31:22.448Z,12.30
2023-08-20T22:34:24.939Z,12.17
2023-08-20T22:37:27.562Z,11.37
2023-08-20T22:40:30.658Z,11.43
2023-08-20T22:43:33.297Z,11.60
2023-08-20T22:46:35.903Z,11.80
2023-08-20T22:49:38.457Z,12.17
2023-08-20T22:52:41.056Z,12.53
2023-08-20T22:55:43.631Z,11.57
2023-08-20T22:58:46.348Z,12.95
2023-08-20T23:01:51.233Z,11.57
2023-08-20T23:04:53.890Z,12.33
2023-08-20T23:07:56.382Z,12.23
2023-08-20T23:10:59.020Z,11.55
2023-08-20T23:14:01.521Z,12.65
2023-08-20T23:17:04.182Z,11.50
2023-08-20T23:20:08.217Z,10.73
2023-08-20T23:23:10.746Z,10.90
2023-08-20T23:26:13.287Z,11.20
2023-08-20T23:29:15.876Z,11.48
2023-08-20T23:32:18.395Z,12.15
2023-08-20T23:35:20.841Z,12.37
2023-08-20T23:38:25.519Z,11.70
2023-08-20T23:41:29.036Z,11.45
2023-08-20T23:44:31.902Z,12.40
2023-08-20T23:47:34.476Z,11.48
2023-08-20T23:50:36.983Z,12.10
2023-08-20T23:53:39.562Z,11.97
2023-08-20T23:56:42.298Z,12.40
2023-08-20T23:59:44.858Z,12.48
